Terminal Aerodrome Forecast
Issued by NWS Medford, OR

Home | Current Version | Previous Version | Text Only | Print | Product List | Glossary On
Versions: 1 2 3 4 5 6 7 8 9 10 11 12 13 14 15 16 17 18 19
000
FTUS46 KMFR 250547
TAFMFR
TAF
KMFR 250547Z 2506/2606 VRB03KT P6SM BKN035
     FM251500 VRB03KT P6SM VCSH BKN035 OVC060
     FM252100 29008KT P6SM -RA SCT025 BKN035 OVC050=

USA.gov is the U.S. government's official web portal to all federal, state and local government web resources and services.